createdAt,value
2018-07-30T00:01:58.085Z,14.47
2018-07-30T00:04:31.804Z,12.97
2018-07-30T00:07:06.138Z,17.70
2018-07-30T00:09:40.843Z,15.50
2018-07-30T00:12:15.648Z,16.43
2018-07-30T00:14:49.377Z,14.30
2018-07-30T00:17:24.210Z,18.40
2018-07-30T00:19:59.063Z,19.30
2018-07-30T00:22:32.954Z,14.13
2018-07-30T00:25:07.655Z,12.63
2018-07-30T00:27:42.473Z,15.17
2018-07-30T00:30:17.197Z,14.90
2018-07-30T00:32:51.270Z,14.77
2018-07-30T00:35:25.328Z,18.20
2018-07-30T00:38:00.159Z,17.23
2018-07-30T00:40:34.963Z,18.07
2018-07-30T00:43:09.696Z,14.20
2018-07-30T00:45:44.696Z,14.60
2018-07-30T00:48:19.422Z,16.23
2018-07-30T00:53:46.885Z,15.07
2018-07-30T00:56:21.580Z,15.20
2018-07-30T00:58:56.413Z,16.83
2018-07-30T01:01:31.113Z,15.40
2018-07-30T01:04:04.808Z,13.50
2018-07-30T01:06:39.501Z,14.77
2018-07-30T01:09:14.598Z,22.40
2018-07-30T01:11:49.429Z,13.80
2018-07-30T01:14:23.268Z,14.20
2018-07-30T01:17:00.125Z,16.33
2018-07-30T01:19:34.082Z,12.80
2018-07-30T01:22:10.096Z,15.43
2018-07-30T01:24:45.130Z,15.13
2018-07-30T01:27:19.758Z,15.87
2018-07-30T01:29:54.520Z,15.77
2018-07-30T01:32:29.430Z,16.50
2018-07-30T01:35:04.322Z,17.20
2018-07-30T01:37:38.329Z,13.67
2018-07-30T01:40:12.914Z,13.70
2018-07-30T01:42:46.859Z,14.30
2018-07-30T01:45:21.471Z,13.20
2018-07-30T01:47:56.375Z,12.80
2018-07-30T01:50:31.174Z,14.27
2018-07-30T01:53:06.100Z,15.57
2018-07-30T01:55:40.789Z,13.43
2018-07-30T01:58:14.657Z,13.00
2018-07-30T02:00:49.398Z,13.53
2018-07-30T02:03:23.412Z,13.93
2018-07-30T02:05:58.184Z,12.80
2018-07-30T02:08:33.116Z,12.97
2018-07-30T02:11:07.255Z,12.30
2018-07-30T02:13:42.111Z,11.67
2018-07-30T02:16:17.013Z,11.50
2018-07-30T02:18:51.670Z,13.10
2018-07-30T02:21:26.384Z,13.60
2018-07-30T02:24:00.861Z,11.63
2018-07-30T02:26:34.731Z,11.63
2018-07-30T02:29:09.535Z,12.40
2018-07-30T02:31:43.257Z,14.67
2018-07-30T02:34:17.650Z,15.63
2018-07-30T02:36:52.550Z,21.80
2018-07-30T02:39:27.482Z,13.73
2018-07-30T02:42:01.417Z,12.73
2018-07-30T02:44:36.157Z,12.50
2018-07-30T02:47:10.964Z,13.97
2018-07-30T02:49:45.617Z,11.57
2018-07-30T02:52:20.516Z,15.10
2018-07-30T02:54:56.297Z,12.30
2018-07-30T02:57:31.070Z,15.30
2018-07-30T03:00:05.034Z,14.43
2018-07-30T03:02:39.752Z,13.83
2018-07-30T03:05:16.219Z,20.67
2018-07-30T03:07:50.866Z,14.67
2018-07-30T03:10:25.622Z,12.20
2018-07-30T03:12:59.539Z,13.13
2018-07-30T03:15:34.331Z,11.90
2018-07-30T03:18:09.153Z,13.40
2018-07-30T03:20:44.144Z,13.97
2018-07-30T03:23:18.611Z,14.37
2018-07-30T03:25:54.348Z,14.87
2018-07-30T03:28:28.229Z,12.23
2018-07-30T03:31:04.130Z,12.27
2018-07-30T03:33:38.940Z,11.90
2018-07-30T03:36:13.923Z,14.27
2018-07-30T03:38:48.590Z,11.67
2018-07-30T03:41:22.473Z,14.80
2018-07-30T03:43:57.011Z,11.20
2018-07-30T03:46:32.018Z,14.50
2018-07-30T03:49:06.672Z,13.30
2018-07-30T03:51:41.367Z,12.40
2018-07-30T03:54:15.233Z,13.40
2018-07-30T03:56:49.934Z,12.47
2018-07-30T03:59:24.763Z,14.77
2018-07-30T04:01:59.552Z,15.30
2018-07-30T04:04:34.234Z,16.37
2018-07-30T04:07:08.315Z,12.50
2018-07-30T04:09:43.209Z,12.80
2018-07-30T04:12:17.778Z,14.77
2018-07-30T04:14:52.926Z,12.20
2018-07-30T04:17:26.694Z,15.47
2018-07-30T04:20:00.713Z,13.40
2018-07-30T04:22:34.601Z,17.90
2018-07-30T04:25:08.555Z,14.20
2018-07-30T04:27:44.812Z,13.53
2018-07-30T04:30:18.912Z,25.90
2018-07-30T04:32:53.971Z,14.30
2018-07-30T04:35:28.819Z,14.63
2018-07-30T04:38:03.473Z,13.17
2018-07-30T04:40:38.200Z,12.93
2018-07-30T04:43:12.107Z,14.00
2018-07-30T04:45:47.075Z,12.77
2018-07-30T04:48:21.637Z,18.70
2018-07-30T04:50:56.419Z,19.80
2018-07-30T04:53:33.277Z,14.93
2018-07-30T04:56:07.941Z,15.80
2018-07-30T04:58:42.669Z,13.97
2018-07-30T05:01:18.518Z,13.43
2018-07-30T05:03:53.385Z,14.90
2018-07-30T05:06:29.213Z,16.33
2018-07-30T05:09:03.968Z,14.30
2018-07-30T05:11:38.932Z,14.47
2018-07-30T05:14:13.651Z,17.67
2018-07-30T05:16:48.405Z,21.20
2018-07-30T05:22:11.849Z,12.33
2018-07-30T05:24:46.380Z,17.43
2018-07-30T05:27:21.586Z,13.73
2018-07-30T05:29:56.465Z,10.90
2018-07-30T05:32:30.393Z,12.70
2018-07-30T05:35:04.729Z,9.87
2018-07-30T05:37:40.446Z,12.57
2018-07-30T05:40:15.347Z,15.80
2018-07-30T05:42:49.369Z,14.03
2018-07-30T05:45:26.326Z,17.10
2018-07-30T05:48:00.931Z,16.53
2018-07-30T05:50:36.841Z,17.87
2018-07-30T05:53:11.406Z,13.73
2018-07-30T05:55:46.232Z,17.07
2018-07-30T05:58:20.220Z,21.13
2018-07-30T06:00:54.901Z,17.63
2018-07-30T06:03:29.687Z,12.77
2018-07-30T06:06:04.414Z,12.20
2018-07-30T06:08:38.607Z,10.37
2018-07-30T06:11:13.476Z,12.40
2018-07-30T06:13:48.091Z,9.40
2018-07-30T06:16:23.016Z,17.13
2018-07-30T06:18:57.708Z,16.53
2018-07-30T06:21:32.618Z,12.13
2018-07-30T06:24:07.263Z,16.27
2018-07-30T06:26:42.057Z,10.77
2018-07-30T06:29:16.827Z,10.97
2018-07-30T06:31:51.787Z,10.27
2018-07-30T06:34:27.589Z,13.33
2018-07-30T06:37:01.670Z,10.00
2018-07-30T06:39:36.429Z,13.83
2018-07-30T06:42:11.370Z,10.33
2018-07-30T06:44:46.126Z,10.07
2018-07-30T06:47:20.921Z,13.80
2018-07-30T06:49:55.781Z,8.50
2018-07-30T06:52:31.451Z,10.10
2018-07-30T06:55:06.167Z,10.67
2018-07-30T06:57:40.963Z,14.10
2018-07-30T07:00:15.816Z,12.40
2018-07-30T07:02:50.600Z,9.13
2018-07-30T07:05:25.621Z,12.43
2018-07-30T07:07:59.931Z,11.13
2018-07-30T07:10:34.707Z,9.30
2018-07-30T07:13:09.649Z,14.93
2018-07-30T07:15:44.541Z,9.27
2018-07-30T07:18:19.104Z,13.00
2018-07-30T07:20:53.924Z,12.23
2018-07-30T07:23:29.625Z,14.00
2018-07-30T07:26:04.300Z,9.63
2018-07-30T07:28:38.312Z,9.97
2018-07-30T07:31:14.007Z,13.97
2018-07-30T07:33:48.778Z,10.10
2018-07-30T07:36:27.578Z,11.30
2018-07-30T07:39:02.807Z,8.80
2018-07-30T07:41:37.196Z,11.83
2018-07-30T07:44:11.958Z,11.73
2018-07-30T07:46:45.639Z,11.70
2018-07-30T07:49:20.482Z,13.93
2018-07-30T07:51:55.312Z,11.47
2018-07-30T07:54:29.035Z,20.53
2018-07-30T07:57:06.169Z,10.40
2018-07-30T07:59:40.805Z,7.80
2018-07-30T08:02:15.651Z,12.50
2018-07-30T08:04:50.132Z,8.00
2018-07-30T08:07:24.884Z,13.93
2018-07-30T08:09:59.831Z,8.47
2018-07-30T08:12:34.651Z,7.63
2018-07-30T08:15:09.357Z,7.40
2018-07-30T08:17:44.193Z,7.17
2018-07-30T08:20:18.966Z,9.67
2018-07-30T08:22:53.758Z,6.47
2018-07-30T08:25:28.833Z,5.50
2018-07-30T08:28:03.618Z,12.00
2018-07-30T08:30:38.701Z,5.90
2018-07-30T08:33:14.183Z,10.47
2018-07-30T08:35:48.146Z,9.53
2018-07-30T08:38:22.874Z,9.20
2018-07-30T08:40:57.813Z,5.23
2018-07-30T08:43:26.799Z,6.47
2018-07-30T08:45:55.595Z,5.30
2018-07-30T08:48:24.371Z,5.60
2018-07-30T08:50:53.371Z,5.93
2018-07-30T08:53:22.145Z,9.73
2018-07-30T08:55:51.152Z,7.40
2018-07-30T08:58:20.228Z,6.10
2018-07-30T09:00:49.110Z,6.47
2018-07-30T09:03:17.917Z,5.87
2018-07-30T09:05:49.025Z,5.60
2018-07-30T09:19:49.856Z,7.33
2018-07-30T09:22:18.622Z,7.07
2018-07-30T09:24:47.486Z,7.80
2018-07-30T09:27:16.399Z,11.30
2018-07-30T09:29:46.283Z,8.10
2018-07-30T09:32:15.222Z,7.17
2018-07-30T09:34:44.268Z,8.17
2018-07-30T09:40:00.075Z,10.27
2018-07-30T09:42:28.550Z,10.20
2018-07-30T09:44:57.041Z,11.90
2018-07-30T09:47:26.127Z,8.00
2018-07-30T09:49:56.247Z,8.57
2018-07-30T09:55:18.480Z,9.07
2018-07-30T10:36:42.122Z,8.43
2018-07-30T10:39:12.180Z,10.40
2018-07-30T10:41:41.077Z,6.80
2018-07-30T10:44:09.987Z,8.37
2018-07-30T10:46:38.800Z,6.80
2018-07-30T10:49:07.862Z,6.47
2018-07-30T10:51:36.893Z,7.10
2018-07-30T10:54:05.899Z,8.70
2018-07-30T10:56:34.869Z,6.70
2018-07-30T10:59:03.838Z,8.13
2018-07-30T11:01:32.859Z,5.77
2018-07-30T11:04:01.937Z,8.97
2018-07-30T11:06:30.966Z,6.90
2018-07-30T11:08:59.839Z,6.50
2018-07-30T11:11:28.900Z,7.00
2018-07-30T11:13:57.834Z,5.70
2018-07-30T11:16:26.863Z,5.90
2018-07-30T11:18:55.661Z,6.60
2018-07-30T11:21:24.606Z,6.20
2018-07-30T11:23:53.612Z,8.17
2018-07-30T11:26:22.549Z,7.00
2018-07-30T11:28:51.592Z,6.30
2018-07-30T11:31:20.542Z,7.40
2018-07-30T11:33:49.661Z,7.10
2018-07-30T11:36:19.791Z,11.40
2018-07-30T11:38:48.745Z,6.90
2018-07-30T11:41:17.779Z,8.60
2018-07-30T11:43:46.845Z,8.03
2018-07-30T11:46:16.963Z,8.63
2018-07-30T11:48:46.025Z,7.50
2018-07-30T11:51:14.913Z,8.93
2018-07-30T11:53:43.942Z,10.13
2018-07-30T11:56:12.866Z,8.90
2018-07-30T11:58:41.830Z,9.60
2018-07-30T12:01:10.913Z,7.00
2018-07-30T12:03:39.741Z,7.17
2018-07-30T12:06:08.824Z,8.60
2018-07-30T12:08:37.678Z,7.00
2018-07-30T12:11:09.624Z,7.57
2018-07-30T12:13:38.593Z,7.40
2018-07-30T12:16:07.522Z,10.63
2018-07-30T12:18:36.544Z,10.00
2018-07-30T12:21:05.401Z,7.50
2018-07-30T12:23:34.383Z,9.57
2018-07-30T12:26:03.410Z,12.00
2018-07-30T12:28:32.331Z,8.43
2018-07-30T12:31:01.085Z,9.07
2018-07-30T12:33:30.156Z,10.73
2018-07-30T12:35:59.078Z,10.13
2018-07-30T12:38:28.347Z,7.27
2018-07-30T12:40:57.382Z,8.00
2018-07-30T12:43:26.356Z,7.83
2018-07-30T12:45:55.422Z,7.60
2018-07-30T12:48:24.412Z,8.37
2018-07-30T12:50:53.421Z,9.33
2018-07-30T12:53:22.324Z,7.67
2018-07-30T12:55:51.270Z,12.60
2018-07-30T12:58:20.255Z,7.80
2018-07-30T13:00:49.191Z,8.50
2018-07-30T13:03:18.328Z,11.30
2018-07-30T13:05:47.272Z,10.10
2018-07-30T13:08:16.334Z,8.67
2018-07-30T13:10:45.328Z,9.53
2018-07-30T13:13:14.348Z,8.50
2018-07-30T13:15:43.311Z,8.93
2018-07-30T13:18:12.876Z,8.10
2018-07-30T13:20:41.796Z,8.40
2018-07-30T13:23:10.712Z,7.00
2018-07-30T13:25:40.019Z,9.70
2018-07-30T13:28:09.030Z,10.73
2018-07-30T13:30:38.083Z,12.73
2018-07-30T13:33:07.142Z,9.97
2018-07-30T13:35:36.233Z,9.70
2018-07-30T13:38:06.019Z,11.90
2018-07-30T13:40:35.092Z,8.93
2018-07-30T13:43:04.064Z,11.37
2018-07-30T13:45:32.814Z,8.40
2018-07-30T13:48:01.824Z,9.00
2018-07-30T13:50:31.012Z,7.73
2018-07-30T13:52:59.876Z,8.07
2018-07-30T13:55:28.833Z,8.03
2018-07-30T13:57:57.723Z,8.03
2018-07-30T14:00:26.665Z,8.17
2018-07-30T14:02:55.426Z,7.53
2018-07-30T14:05:24.445Z,7.43
2018-07-30T14:07:53.348Z,6.93
2018-07-30T14:10:22.438Z,7.10
2018-07-30T14:12:51.514Z,9.73
2018-07-30T14:15:20.469Z,10.00
2018-07-30T14:17:49.420Z,9.60
2018-07-30T14:20:18.556Z,9.17
2018-07-30T14:22:47.692Z,7.13
2018-07-30T14:25:16.695Z,8.73
2018-07-30T14:27:45.886Z,7.90
2018-07-30T14:30:14.945Z,7.43
2018-07-30T14:32:44.495Z,8.13
2018-07-30T14:35:13.462Z,9.60
2018-07-30T14:37:42.497Z,6.80
2018-07-30T14:40:14.785Z,11.03
2018-07-30T14:42:43.938Z,7.70
2018-07-30T14:45:13.241Z,10.03
2018-07-30T14:47:42.126Z,8.20
2018-07-30T14:50:11.352Z,7.50
2018-07-30T14:52:40.422Z,7.73
2018-07-30T14:55:09.523Z,9.67
2018-07-30T14:57:38.710Z,9.83
2018-07-30T15:00:09.073Z,7.80
2018-07-30T15:02:38.254Z,9.40
2018-07-30T15:05:07.107Z,12.50
2018-07-30T15:07:36.124Z,7.93
2018-07-30T15:10:05.448Z,8.50
2018-07-30T15:12:34.522Z,7.50
2018-07-30T15:15:03.692Z,8.13
2018-07-30T15:17:33.887Z,9.70
2018-07-30T15:20:02.753Z,7.27
2018-07-30T15:22:31.844Z,10.30
2018-07-30T15:25:00.687Z,11.80
2018-07-30T15:27:29.811Z,7.77
2018-07-30T15:29:58.869Z,10.93
2018-07-30T15:32:28.563Z,8.63
2018-07-30T15:34:57.740Z,7.90
2018-07-30T15:37:26.808Z,7.40
2018-07-30T15:39:55.818Z,7.20
2018-07-30T15:42:24.806Z,8.60
2018-07-30T15:44:53.851Z,7.53
2018-07-30T15:47:22.897Z,7.90
2018-07-30T15:49:53.869Z,8.07
2018-07-30T15:52:23.184Z,8.80
2018-07-30T15:54:52.422Z,8.80
2018-07-30T15:57:21.436Z,10.20
2018-07-30T15:59:50.527Z,7.80
2018-07-30T16:02:19.441Z,7.67
2018-07-30T16:04:48.287Z,6.90
2018-07-30T16:07:18.308Z,8.47
2018-07-30T16:09:47.134Z,7.13
2018-07-30T16:12:16.280Z,9.23
2018-07-30T16:14:45.418Z,11.50
2018-07-30T16:17:14.610Z,6.80
2018-07-30T16:19:43.584Z,8.20
2018-07-30T16:22:12.439Z,9.20
2018-07-30T16:24:41.421Z,8.87
2018-07-30T16:27:10.362Z,7.17
2018-07-30T16:29:39.256Z,9.10
2018-07-30T16:32:08.716Z,7.40
2018-07-30T16:34:37.712Z,9.13
2018-07-30T16:37:06.793Z,8.37
2018-07-30T16:39:35.959Z,7.33
2018-07-30T16:42:04.903Z,9.13
2018-07-30T16:44:33.878Z,7.50
2018-07-30T16:47:02.904Z,7.43
2018-07-30T16:49:31.894Z,9.10
2018-07-30T16:52:00.884Z,12.13
2018-07-30T16:54:30.053Z,5.60
2018-07-30T16:56:58.998Z,7.93
2018-07-30T16:59:28.020Z,7.33
2018-07-30T17:01:57.169Z,8.87
2018-07-30T17:04:25.943Z,6.90
2018-07-30T17:06:55.178Z,6.43
2018-07-30T17:09:24.119Z,6.23
2018-07-30T17:11:53.134Z,10.43
2018-07-30T17:14:22.109Z,7.00
2018-07-30T17:16:51.376Z,9.80
2018-07-30T17:19:21.276Z,6.90
2018-07-30T17:21:50.164Z,7.00
2018-07-30T17:24:19.138Z,8.17
2018-07-30T17:26:48.071Z,8.10
2018-07-30T17:29:17.062Z,6.70
2018-07-30T17:31:47.151Z,8.20
2018-07-30T17:34:16.053Z,7.53
2018-07-30T17:36:45.024Z,7.17
2018-07-30T17:39:14.333Z,7.53
2018-07-30T17:41:43.392Z,14.33
2018-07-30T17:44:12.634Z,7.80
2018-07-30T17:46:41.460Z,7.97
2018-07-30T17:49:10.465Z,5.60
2018-07-30T17:51:39.517Z,5.97
2018-07-30T17:54:08.662Z,6.27
2018-07-30T17:56:38.889Z,5.13
2018-07-30T17:59:07.840Z,6.70
2018-07-30T18:01:38.788Z,6.90
2018-07-30T18:04:07.707Z,7.93
2018-07-30T18:06:36.705Z,8.63
2018-07-30T18:09:07.684Z,7.03
2018-07-30T18:14:05.830Z,11.33
2018-07-30T18:16:34.551Z,11.77
2018-07-30T18:19:03.292Z,9.67
2018-07-30T18:21:32.309Z,12.27
2018-07-30T18:24:01.108Z,8.20
2018-07-30T18:26:29.888Z,7.37
2018-07-30T18:28:58.788Z,12.03
2018-07-30T18:31:28.715Z,7.53
2018-07-30T18:33:57.678Z,8.47
2018-07-30T18:36:26.431Z,10.93
2018-07-30T18:38:55.200Z,12.23
2018-07-30T18:41:24.447Z,12.97
2018-07-30T18:43:53.229Z,12.80
2018-07-30T18:46:22.181Z,11.80
2018-07-30T18:48:50.974Z,11.47
2018-07-30T18:51:19.838Z,14.50
2018-07-30T18:53:48.577Z,13.00
2018-07-30T18:56:17.379Z,10.23
2018-07-30T18:58:47.097Z,10.57
2018-07-30T19:01:15.947Z,10.50
2018-07-30T19:03:44.801Z,10.90
2018-07-30T19:06:13.720Z,17.00
2018-07-30T19:08:42.601Z,10.50
2018-07-30T19:11:11.567Z,16.50
2018-07-30T19:13:40.309Z,15.37
2018-07-30T19:16:09.190Z,15.40
2018-07-30T19:18:38.021Z,11.87
2018-07-30T19:21:06.888Z,13.50
2018-07-30T19:23:35.776Z,17.63
2018-07-30T19:26:06.459Z,20.73
2018-07-30T19:28:39.502Z,17.63
2018-07-30T19:31:09.677Z,18.00
2018-07-30T19:33:38.493Z,16.07
2018-07-30T19:36:07.445Z,18.60
2018-07-30T19:38:36.469Z,20.13
2018-07-30T19:41:05.564Z,18.40
2018-07-30T19:43:34.440Z,17.73
2018-07-30T19:46:03.269Z,16.77
2018-07-30T19:48:32.185Z,20.20
2018-07-30T19:51:01.882Z,19.90
2018-07-30T19:53:30.710Z,18.80
2018-07-30T19:55:59.544Z,25.43
2018-07-30T19:58:29.515Z,22.13
2018-07-30T20:00:57.868Z,20.90
2018-07-30T20:03:26.715Z,19.83
2018-07-30T20:05:55.607Z,21.87
2018-07-30T20:08:24.492Z,20.97
2018-07-30T20:10:54.295Z,17.67
2018-07-30T20:13:23.228Z,22.10
2018-07-30T20:15:52.161Z,20.83
2018-07-30T20:18:21.694Z,17.37
2018-07-30T20:20:50.519Z,19.57
2018-07-30T20:23:19.368Z,21.67
2018-07-30T20:25:48.189Z,23.63
2018-07-30T20:28:17.049Z,21.10
2018-07-30T20:30:45.866Z,24.53
2018-07-30T20:33:15.697Z,22.40
2018-07-30T20:35:44.411Z,23.90
2018-07-30T20:38:13.239Z,21.90
2018-07-30T20:40:42.253Z,25.90
2018-07-30T20:43:11.256Z,20.73
2018-07-30T20:45:42.163Z,21.60
2018-07-30T20:48:10.900Z,24.03
2018-07-30T20:50:39.777Z,20.33
2018-07-30T20:53:08.637Z,21.40
2018-07-30T20:55:37.433Z,24.27
2018-07-30T20:58:06.281Z,24.10
2018-07-30T21:00:35.068Z,28.93
2018-07-30T21:03:04.274Z,22.50
2018-07-30T21:05:37.396Z,21.70
2018-07-30T21:08:06.269Z,20.53
2018-07-30T21:10:34.985Z,22.77
2018-07-30T21:13:03.701Z,19.90
2018-07-30T21:15:32.639Z,21.43
2018-07-30T21:18:01.390Z,23.13
2018-07-30T21:20:30.248Z,30.13
2018-07-30T21:23:00.097Z,20.37
2018-07-30T21:25:28.989Z,21.00
2018-07-30T21:27:57.858Z,24.53
2018-07-30T21:30:26.688Z,21.30
2018-07-30T21:32:55.620Z,21.53
2018-07-30T21:35:24.414Z,20.70
2018-07-30T21:37:53.494Z,19.27
2018-07-30T21:40:22.195Z,23.20
2018-07-30T21:42:50.704Z,24.03
2018-07-30T21:45:19.542Z,20.63
2018-07-30T21:47:48.290Z,20.73
2018-07-30T21:50:17.318Z,17.83
2018-07-30T21:52:46.083Z,21.73
2018-07-30T21:55:14.945Z,18.73
2018-07-30T21:57:44.949Z,23.83
2018-07-30T22:00:22.643Z,18.97
2018-07-30T22:02:52.040Z,20.67
2018-07-30T22:05:25.523Z,20.90
2018-07-30T22:07:54.491Z,23.23
2018-07-30T22:10:25.235Z,20.47
2018-07-30T22:12:55.179Z,22.33
2018-07-30T22:15:24.499Z,25.60
2018-07-30T22:17:53.605Z,20.87
2018-07-30T22:20:22.707Z,19.90
2018-07-30T22:22:51.575Z,18.00
2018-07-30T22:25:20.372Z,25.33
2018-07-30T22:27:49.106Z,21.37
2018-07-30T22:30:18.468Z,21.47
2018-07-30T22:32:47.308Z,19.47
2018-07-30T22:35:16.036Z,19.83
2018-07-30T22:37:44.805Z,23.87
2018-07-30T22:40:13.610Z,19.53
2018-07-30T22:42:42.317Z,21.13
2018-07-30T22:45:11.114Z,22.57
2018-07-30T22:47:41.241Z,19.03
2018-07-30T22:50:10.000Z,19.33
2018-07-30T22:52:40.489Z,23.83
2018-07-30T22:55:09.287Z,19.50
2018-07-30T22:57:39.152Z,17.80
2018-07-30T23:00:08.361Z,22.90
2018-07-30T23:02:37.175Z,22.00
2018-07-30T23:05:06.633Z,17.07
2018-07-30T23:07:35.451Z,17.93
2018-07-30T23:10:04.872Z,18.40
2018-07-30T23:12:33.745Z,14.30
2018-07-30T23:15:02.418Z,13.50
2018-07-30T23:17:31.238Z,16.03
2018-07-30T23:20:00.146Z,15.00
2018-07-30T23:22:29.092Z,14.77
2018-07-30T23:24:57.945Z,13.63
2018-07-30T23:27:26.711Z,15.70
2018-07-30T23:29:55.495Z,14.50
2018-07-30T23:32:24.303Z,14.40
2018-07-30T23:34:53.455Z,17.23
2018-07-30T23:37:22.328Z,12.50
2018-07-30T23:39:50.990Z,14.17
2018-07-30T23:42:19.869Z,15.77
2018-07-30T23:44:48.313Z,13.77
2018-07-30T23:47:17.061Z,14.10
2018-07-30T23:49:45.781Z,16.97
2018-07-30T23:52:14.610Z,14.10
2018-07-30T23:54:43.381Z,13.60
2018-07-30T23:57:12.196Z,14.77
2018-07-30T23:59:41.052Z,14.73
